METAR Data
IDs: Format: Raw Decoded Include TAF

Data at: 0316 UTC 01 Feb 2023

METAR for:K6B9 (Skaneateles Arpt, NY, US)
Text:K6B9 010315Z AUTO 00000KT 10SM BKN060 OVC075 M08/M13 A3022 RMK AO2
Temperature: -8.0°C ( 18°F)
Dewpoint:-13.0°C ( 9°F) [RH = 67%]
Pressure (altimeter):30.22 inches Hg (1023.5 mb)
Winds:calm
Visibility:10 or more sm (16+ km)
Ceiling:6000 feet AGL
Clouds: broken clouds at 6000 feet AGL, overcast cloud deck at 7500 feet AGL
QC Flag:automated observation with no human augmentation
Text:K6B9 010255Z AUTO 00000KT 10SM BKN060 OVC070 M08/M13 A3022 RMK AO2
Temperature: -8.0°C ( 18°F)
Dewpoint:-13.0°C ( 9°F) [RH = 67%]
Pressure (altimeter):30.22 inches Hg (1023.5 mb)
Winds:calm
Visibility:10 or more sm (16+ km)
Ceiling:6000 feet AGL
Clouds: broken clouds at 6000 feet AGL, overcast cloud deck at 7000 feet AGL
QC Flag:automated observation with no human augmentation
Text:K6B9 010235Z AUTO 11004KT 10SM OVC075 M08/M13 A3022 RMK AO2
Temperature: -8.0°C ( 18°F)
Dewpoint:-13.0°C ( 9°F) [RH = 67%]
Pressure (altimeter):30.22 inches Hg (1023.5 mb)
Winds:from the ESE (110 degrees) at 5 MPH (4 knots; 2.1 m/s)
Visibility:10 or more sm (16+ km)
Ceiling:7500 feet AGL
Clouds: overcast cloud deck at 7500 feet AGL
QC Flag:automated observation with no human augmentation
Text:K6B9 010215Z AUTO 00000KT 10SM SCT070 BKN075 OVC095 M08/M13 A3021 RMK AO2
Temperature: -8.0°C ( 18°F)
Dewpoint:-13.0°C ( 9°F) [RH = 67%]
Pressure (altimeter):30.21 inches Hg (1023.1 mb)
Winds:calm
Visibility:10 or more sm (16+ km)
Ceiling:7500 feet AGL
Clouds: scattered clouds at 7000 feet AGL, broken clouds at 7500 feet AGL, overcast cloud deck at 9500 feet AGL
QC Flag:automated observation with no human augmentation
Text:K6B9 010155Z AUTO 00000KT 10SM FEW065 BKN080 OVC095 M08/M13 A3022 RMK AO2
Temperature: -8.0°C ( 18°F)
Dewpoint:-13.0°C ( 9°F) [RH = 67%]
Pressure (altimeter):30.22 inches Hg (1023.5 mb)
Winds:calm
Visibility:10 or more sm (16+ km)
Ceiling:8000 feet AGL
Clouds: few clouds at 6500 feet AGL, broken clouds at 8000 feet AGL, overcast cloud deck at 9500 feet AGL
QC Flag:automated observation with no human augmentation
Text:K6B9 010135Z AUTO 00000KT 10SM SCT065 OVC095 M09/M12 A3021 RMK AO2
Temperature: -9.0°C ( 16°F)
Dewpoint:-12.0°C ( 10°F) [RH = 79%]
Pressure (altimeter):30.21 inches Hg (1023.1 mb)
Winds:calm
Visibility:10 or more sm (16+ km)
Ceiling:9500 feet AGL
Clouds: scattered clouds at 6500 feet AGL, overcast cloud deck at 9500 feet AGL
QC Flag:automated observation with no human augmentation
Text:K6B9 010115Z AUTO 00000KT 10SM OVC100 M11/M12 A3022 RMK AO2
Temperature:-11.0°C ( 12°F)
Dewpoint:-12.0°C ( 10°F) [RH = 92%]
Pressure (altimeter):30.22 inches Hg (1023.5 mb)
Winds:calm
Visibility:10 or more sm (16+ km)
Ceiling:10000 feet AGL
Clouds: overcast cloud deck at 10000 feet AGL
QC Flag:automated observation with no human augmentation
Text:K6B9 010055Z AUTO 00000KT 10SM SCT085 OVC110 M12/M13 A3023 RMK AO2
Temperature:-12.0°C ( 10°F)
Dewpoint:-13.0°C ( 9°F) [RH = 92%]
Pressure (altimeter):30.23 inches Hg (1023.8 mb)
Winds:calm
Visibility:10 or more sm (16+ km)
Ceiling:11000 feet AGL
Clouds: scattered clouds at 8500 feet AGL, overcast cloud deck at 11000 feet AGL
QC Flag:automated observation with no human augmentation
Text:K6B9 010035Z AUTO 00000KT 10SM OVC100 M12/M13 A3024 RMK AO2
Temperature:-12.0°C ( 10°F)
Dewpoint:-13.0°C ( 9°F) [RH = 92%]
Pressure (altimeter):30.24 inches Hg (1024.1 mb)
Winds:calm
Visibility:10 or more sm (16+ km)
Ceiling:10000 feet AGL
Clouds: overcast cloud deck at 10000 feet AGL
QC Flag:automated observation with no human augmentation
Text:K6B9 010015Z AUTO 00000KT 10SM OVC110 M13/M14 A3024 RMK AO2
Temperature:-13.0°C ( 9°F)
Dewpoint:-14.0°C ( 7°F) [RH = 92%]
Pressure (altimeter):30.24 inches Hg (1024.1 mb)
Winds:calm
Visibility:10 or more sm (16+ km)
Ceiling:11000 feet AGL
Clouds: overcast cloud deck at 11000 feet AGL
QC Flag:automated observation with no human augmentation
Text:K6B9 312355Z AUTO 00000KT 10SM OVC110 M14/M15 A3023 RMK AO2
Temperature:-14.0°C ( 7°F)
Dewpoint:-15.0°C ( 5°F) [RH = 92%]
Pressure (altimeter):30.23 inches Hg (1023.8 mb)
Winds:calm
Visibility:10 or more sm (16+ km)
Ceiling:11000 feet AGL
Clouds: overcast cloud deck at 11000 feet AGL
QC Flag:automated observation with no human augmentation
Text:K6B9 312335Z AUTO 00000KT 10SM FEW027 SCT041 BKN110 M13/M14 A3023 RMK AO2
Temperature:-13.0°C ( 9°F)
Dewpoint:-14.0°C ( 7°F) [RH = 92%]
Pressure (altimeter):30.23 inches Hg (1023.8 mb)
Winds:calm
Visibility:10 or more sm (16+ km)
Ceiling:11000 feet AGL
Clouds: few clouds at 2700 feet AGL, scattered clouds at 4100 feet AGL, broken clouds at 11000 feet AGL
QC Flag:automated observation with no human augmentation
Text:K6B9 312315Z AUTO 00000KT 10SM SCT027 SCT041 OVC100 M12/M14 A3023 RMK AO2
Temperature:-12.0°C ( 10°F)
Dewpoint:-14.0°C ( 7°F) [RH = 85%]
Pressure (altimeter):30.23 inches Hg (1023.8 mb)
Winds:calm
Visibility:10 or more sm (16+ km)
Ceiling:10000 feet AGL
Clouds: scattered clouds at 2700 feet AGL, scattered clouds at 4100 feet AGL, overcast cloud deck at 10000 feet AGL
QC Flag:automated observation with no human augmentation
Text:K6B9 312255Z AUTO 00000KT 10SM BKN028 OVC110 M10/M14 A3023 RMK AO2
Temperature:-10.0°C ( 14°F)
Dewpoint:-14.0°C ( 7°F) [RH = 72%]
Pressure (altimeter):30.23 inches Hg (1023.8 mb)
Winds:calm
Visibility:10 or more sm (16+ km)
Ceiling:2800 feet AGL
Clouds: broken clouds at 2800 feet AGL, overcast cloud deck at 11000 feet AGL
QC Flag:automated observation with no human augmentation
Text:K6B9 312235Z AUTO 00000KT 10SM FEW022 BKN028 OVC040 M08/M14 A3022 RMK AO2
Temperature: -8.0°C ( 18°F)
Dewpoint:-14.0°C ( 7°F) [RH = 62%]
Pressure (altimeter):30.22 inches Hg (1023.5 mb)
Winds:calm
Visibility:10 or more sm (16+ km)
Ceiling:2800 feet AGL
Clouds: few clouds at 2200 feet AGL, broken clouds at 2800 feet AGL, overcast cloud deck at 4000 feet AGL
QC Flag:automated observation with no human augmentation
Text:K6B9 312215Z AUTO 00000KT 10SM FEW019 SCT031 BKN041 M08/M14 A3024 RMK AO2
Temperature: -8.0°C ( 18°F)
Dewpoint:-14.0°C ( 7°F) [RH = 62%]
Pressure (altimeter):30.24 inches Hg (1024.1 mb)
Winds:calm
Visibility:10 or more sm (16+ km)
Ceiling:4100 feet AGL
Clouds: few clouds at 1900 feet AGL, scattered clouds at 3100 feet AGL, broken clouds at 4100 feet AGL
QC Flag:automated observation with no human augmentation
Text:K6B9 312155Z AUTO VRB03KT 10SM SCT020 BKN033 OVC042 M07/M14 A3023 RMK AO2
Temperature: -7.0°C ( 19°F)
Dewpoint:-14.0°C ( 7°F) [RH = 57%]
Pressure (altimeter):30.23 inches Hg (1023.8 mb)
Winds:variable direction winds at 3 MPH (3 knots; 1.5 m/s)
Visibility:10 or more sm (16+ km)
Ceiling:3300 feet AGL
Clouds: scattered clouds at 2000 feet AGL, broken clouds at 3300 feet AGL, overcast cloud deck at 4200 feet AGL
QC Flag:automated observation with no human augmentation
Text:K6B9 312135Z AUTO 00000KT 10SM SCT024 BKN030 OVC042 M07/M13 A3022 RMK AO2
Temperature: -7.0°C ( 19°F)
Dewpoint:-13.0°C ( 9°F) [RH = 62%]
Pressure (altimeter):30.22 inches Hg (1023.5 mb)
Winds:calm
Visibility:10 or more sm (16+ km)
Ceiling:3000 feet AGL
Clouds: scattered clouds at 2400 feet AGL, broken clouds at 3000 feet AGL, overcast cloud deck at 4200 feet AGL
QC Flag:automated observation with no human augmentation
Text:K6B9 312115Z AUTO 02005KT 10SM BKN028 OVC043 M07/M12 A3022 RMK AO2
Temperature: -7.0°C ( 19°F)
Dewpoint:-12.0°C ( 10°F) [RH = 67%]
Pressure (altimeter):30.22 inches Hg (1023.5 mb)
Winds:from the NNE (20 degrees) at 6 MPH (5 knots; 2.6 m/s)
Visibility:10 or more sm (16+ km)
Ceiling:2800 feet AGL
Clouds: broken clouds at 2800 feet AGL, overcast cloud deck at 4300 feet AGL
QC Flag:automated observation with no human augmentation
Text:K6B9 312055Z AUTO VRB05KT 10SM FEW019 OVC028 M07/M12 A3023 RMK AO2
Temperature: -7.0°C ( 19°F)
Dewpoint:-12.0°C ( 10°F) [RH = 67%]
Pressure (altimeter):30.23 inches Hg (1023.8 mb)
Winds:variable direction winds at 6 MPH (5 knots; 2.6 m/s)
Visibility:10 or more sm (16+ km)
Ceiling:2800 feet AGL
Clouds: few clouds at 1900 feet AGL, overcast cloud deck at 2800 feet AGL
QC Flag:automated observation with no human augmentation
Text:K6B9 312035Z AUTO 08003KT 10SM SCT020 BKN028 OVC035 M07/M12 A3023 RMK AO2
Temperature: -7.0°C ( 19°F)
Dewpoint:-12.0°C ( 10°F) [RH = 67%]
Pressure (altimeter):30.23 inches Hg (1023.8 mb)
Winds:from the E (80 degrees) at 3 MPH (3 knots; 1.5 m/s)
Visibility:10 or more sm (16+ km)
Ceiling:2800 feet AGL
Clouds: scattered clouds at 2000 feet AGL, broken clouds at 2800 feet AGL, overcast cloud deck at 3500 feet AGL
QC Flag:automated observation with no human augmentation
Text:K6B9 312015Z AUTO VRB03KT 10SM SCT023 BKN028 OVC032 M07/M12 A3023 RMK AO2
Temperature: -7.0°C ( 19°F)
Dewpoint:-12.0°C ( 10°F) [RH = 67%]
Pressure (altimeter):30.23 inches Hg (1023.8 mb)
Winds:variable direction winds at 3 MPH (3 knots; 1.5 m/s)
Visibility:10 or more sm (16+ km)
Ceiling:2800 feet AGL
Clouds: scattered clouds at 2300 feet AGL, broken clouds at 2800 feet AGL, overcast cloud deck at 3200 feet AGL
QC Flag:automated observation with no human augmentation
Text:K6B9 311955Z AUTO 01007KT 6SM -SN BKN023 OVC033 M07/M11 A3023 RMK AO2
Temperature: -7.0°C ( 19°F)
Dewpoint:-11.0°C ( 12°F) [RH = 73%]
Pressure (altimeter):30.23 inches Hg (1023.8 mb)
Winds:from the N (10 degrees) at 8 MPH (7 knots; 3.6 m/s)
Visibility: 6 sm ( 10 km)
Ceiling:2300 feet AGL
Clouds: broken clouds at 2300 feet AGL, overcast cloud deck at 3300 feet AGL
Weather:-SN (light snow)
QC Flag:automated observation with no human augmentation
Text:K6B9 311935Z AUTO 02005KT 9SM SCT024 BKN030 OVC035 M07/M10 A3024 RMK AO2
Temperature: -7.0°C ( 19°F)
Dewpoint:-10.0°C ( 14°F) [RH = 79%]
Pressure (altimeter):30.24 inches Hg (1024.1 mb)
Winds:from the NNE (20 degrees) at 6 MPH (5 knots; 2.6 m/s)
Visibility: 9 sm ( 14 km)
Ceiling:3000 feet AGL
Clouds: scattered clouds at 2400 feet AGL, broken clouds at 3000 feet AGL, overcast cloud deck at 3500 feet AGL
QC Flag:automated observation with no human augmentation
Text:K6B9 311915Z AUTO 01006KT 2SM -SN BKN027 BKN033 M07/M10 A3024 RMK AO2
Temperature: -7.0°C ( 19°F)
Dewpoint:-10.0°C ( 14°F) [RH = 79%]
Pressure (altimeter):30.24 inches Hg (1024.1 mb)
Winds:from the N (10 degrees) at 7 MPH (6 knots; 3.1 m/s)
Visibility: 2.00 sm ( 3.22 km)
Ceiling:2700 feet AGL
Clouds: broken clouds at 2700 feet AGL, broken clouds at 3300 feet AGL
Weather:-SN (light snow)
QC Flag:automated observation with no human augmentation
Text:K6B9 311855Z AUTO 36007KT 1SM -SN SCT022 SCT027 M07/M09 A3024 RMK AO2
Temperature: -7.0°C ( 19°F)
Dewpoint: -9.0°C ( 16°F) [RH = 86%]
Pressure (altimeter):30.24 inches Hg (1024.1 mb)
Winds:from the N (360 degrees) at 8 MPH (7 knots; 3.6 m/s)
Visibility: 1.00 sm ( 1.61 km)
Ceiling:at least 12,000 feet AGL
Clouds: scattered clouds at 2200 feet AGL, scattered clouds at 2700 feet AGL
Weather:-SN (light snow)
QC Flag:automated observation with no human augmentation
Text:K6B9 311835Z AUTO 01007KT 2 1/2SM -SN BKN022 BKN028 M07/M09 A3024 RMK AO2
Temperature: -7.0°C ( 19°F)
Dewpoint: -9.0°C ( 16°F) [RH = 86%]
Pressure (altimeter):30.24 inches Hg (1024.1 mb)
Winds:from the N (10 degrees) at 8 MPH (7 knots; 3.6 m/s)
Visibility: 2.50 sm ( 4.02 km)
Ceiling:2200 feet AGL
Clouds: broken clouds at 2200 feet AGL, broken clouds at 2800 feet AGL
Weather:-SN (light snow)
QC Flag:automated observation with no human augmentation
Text:K6B9 311815Z AUTO 02006KT 2SM -SN FEW015 BKN028 BKN032 M07/M09 A3025 RMK AO2
Temperature: -7.0°C ( 19°F)
Dewpoint: -9.0°C ( 16°F) [RH = 86%]
Pressure (altimeter):30.25 inches Hg (1024.5 mb)
Winds:from the NNE (20 degrees) at 7 MPH (6 knots; 3.1 m/s)
Visibility: 2.00 sm ( 3.22 km)
Ceiling:2800 feet AGL
Clouds: few clouds at 1500 feet AGL, broken clouds at 2800 feet AGL, broken clouds at 3200 feet AGL
Weather:-SN (light snow)
QC Flag:automated observation with no human augmentation
Text:K6B9 311755Z AUTO 02005KT 2SM -SN SCT014 BKN026 BKN031 M07/M08 A3026 RMK AO2
Temperature: -7.0°C ( 19°F)
Dewpoint: -8.0°C ( 18°F) [RH = 93%]
Pressure (altimeter):30.26 inches Hg (1024.8 mb)
Winds:from the NNE (20 degrees) at 6 MPH (5 knots; 2.6 m/s)
Visibility: 2.00 sm ( 3.22 km)
Ceiling:2600 feet AGL
Clouds: scattered clouds at 1400 feet AGL, broken clouds at 2600 feet AGL, broken clouds at 3100 feet AGL
Weather:-SN (light snow)
QC Flag:automated observation with no human augmentation
Text:K6B9 311735Z AUTO 02007KT 2SM -SN FEW015 SCT020 BKN030 M07/M09 A3026 RMK AO2
Temperature: -7.0°C ( 19°F)
Dewpoint: -9.0°C ( 16°F) [RH = 86%]
Pressure (altimeter):30.26 inches Hg (1024.8 mb)
Winds:from the NNE (20 degrees) at 8 MPH (7 knots; 3.6 m/s)
Visibility: 2.00 sm ( 3.22 km)
Ceiling:3000 feet AGL
Clouds: few clouds at 1500 feet AGL, scattered clouds at 2000 feet AGL, broken clouds at 3000 feet AGL
Weather:-SN (light snow)
QC Flag:automated observation with no human augmentation
Text:K6B9 311715Z AUTO 02005KT 3/4SM -SN OVC017 M07/M08 A3026 RMK AO2
Temperature: -7.0°C ( 19°F)
Dewpoint: -8.0°C ( 18°F) [RH = 93%]
Pressure (altimeter):30.26 inches Hg (1024.8 mb)
Winds:from the NNE (20 degrees) at 6 MPH (5 knots; 2.6 m/s)
Visibility: 0.75 sm ( 1.21 km)
Ceiling:1700 feet AGL
Clouds: overcast cloud deck at 1700 feet AGL
Weather:-SN (light snow)
QC Flag:automated observation with no human augmentation
Text:K6B9 311655Z AUTO 01006KT 3/4SM -SN BKN016 BKN023 M07/M08 A3026 RMK AO2
Temperature: -7.0°C ( 19°F)
Dewpoint: -8.0°C ( 18°F) [RH = 93%]
Pressure (altimeter):30.26 inches Hg (1024.8 mb)
Winds:from the N (10 degrees) at 7 MPH (6 knots; 3.1 m/s)
Visibility: 0.75 sm ( 1.21 km)
Ceiling:1600 feet AGL
Clouds: broken clouds at 1600 feet AGL, broken clouds at 2300 feet AGL
Weather:-SN (light snow)
QC Flag:automated observation with no human augmentation
Text:K6B9 311635Z AUTO VRB05KT 1SM -SN FEW009 SCT015 M06/M07 A3027 RMK AO2
Temperature: -6.0°C ( 21°F)
Dewpoint: -7.0°C ( 19°F) [RH = 93%]
Pressure (altimeter):30.27 inches Hg (1025.1 mb)
Winds:variable direction winds at 6 MPH (5 knots; 2.6 m/s)
Visibility: 1.00 sm ( 1.61 km)
Ceiling:at least 12,000 feet AGL
Clouds: few clouds at 900 feet AGL, scattered clouds at 1500 feet AGL
Weather:-SN (light snow)
QC Flag:automated observation with no human augmentation
Text:K6B9 311615Z AUTO 28006KT 3/4SM -SN BKN013 OVC020 M06/M07 A3028 RMK AO2
Temperature: -6.0°C ( 21°F)
Dewpoint: -7.0°C ( 19°F) [RH = 93%]
Pressure (altimeter):30.28 inches Hg (1025.5 mb)
Winds:from the W (280 degrees) at 7 MPH (6 knots; 3.1 m/s)
Visibility: 0.75 sm ( 1.21 km)
Ceiling:1300 feet AGL
Clouds: broken clouds at 1300 feet AGL, overcast cloud deck at 2000 feet AGL
Weather:-SN (light snow)
QC Flag:automated observation with no human augmentation
Text:K6B9 311555Z AUTO 28006KT 4SM -SN BKN014 BKN021 OVC034 M06/M08 A3028 RMK AO2
Temperature: -6.0°C ( 21°F)
Dewpoint: -8.0°C ( 18°F) [RH = 86%]
Pressure (altimeter):30.28 inches Hg (1025.5 mb)
Winds:from the W (280 degrees) at 7 MPH (6 knots; 3.1 m/s)
Visibility: 4 sm ( 6 km)
Ceiling:1400 feet AGL
Clouds: broken clouds at 1400 feet AGL, broken clouds at 2100 feet AGL, overcast cloud deck at 3400 feet AGL
Weather:-SN (light snow)
QC Flag:automated observation with no human augmentation
Text:K6B9 311535Z AUTO VRB06G12KT 1 3/4SM -SN SCT006 BKN013 OVC029 M07/M08 A3028 RMK AO2
Temperature: -7.0°C ( 19°F)
Dewpoint: -8.0°C ( 18°F) [RH = 93%]
Pressure (altimeter):30.28 inches Hg (1025.5 mb)
Winds:variable direction winds at 7 MPH (6 knots; 3.1 m/s) gusting to 14 MPH (12 knots; 6.2 m/s)
Visibility: 1.75 sm ( 2.82 km)
Ceiling:1300 feet AGL
Clouds: scattered clouds at 600 feet AGL, broken clouds at 1300 feet AGL, overcast cloud deck at 2900 feet AGL
Weather:-SN (light snow)
QC Flag:automated observation with no human augmentation